createdAt,value
2023-04-11T01:06:12.449Z,100694.60
2023-04-11T01:08:41.892Z,100688.60
2023-04-11T01:11:10.061Z,100685.60
2023-04-11T01:13:41.825Z,100685.80
2023-04-11T01:16:12.380Z,100685.20
2023-04-11T01:18:38.974Z,100684.00
2023-04-11T01:21:06.179Z,100681.40
2023-04-11T01:23:33.680Z,100680.00
2023-04-11T01:26:00.226Z,100678.40
2023-04-11T01:28:26.697Z,100675.40
2023-04-11T01:30:53.477Z,100672.60
2023-04-11T01:33:20.628Z,100671.60
2023-04-11T01:35:47.750Z,100672.00
2023-04-11T01:38:14.542Z,100670.40
2023-04-11T01:40:41.486Z,100671.40
2023-04-11T01:43:09.237Z,100672.60
2023-04-11T01:45:35.852Z,100665.00
2023-04-11T01:48:08.710Z,100661.60
2023-04-11T01:50:35.293Z,100656.60
2023-04-11T01:53:01.765Z,100657.80
2023-04-11T01:55:29.125Z,100655.80
2023-04-11T01:57:55.750Z,100655.20
2023-04-11T02:00:23.473Z,100651.20
2023-04-11T02:02:50.949Z,100648.20
2023-04-11T02:05:17.774Z,100643.40
2023-04-11T02:07:44.466Z,100642.80
2023-04-11T02:10:15.469Z,100642.40
2023-04-11T02:12:41.842Z,100635.00
2023-04-11T02:15:08.722Z,100634.00
2023-04-11T02:17:36.214Z,100632.40
2023-04-11T02:20:06.395Z,100626.40
2023-04-11T02:22:32.840Z,100622.60
2023-04-11T02:24:59.468Z,100621.60
2023-04-11T02:27:25.863Z,100622.20
2023-04-11T02:29:54.249Z,100619.20
2023-04-11T02:32:20.764Z,100623.60
2023-04-11T02:34:47.326Z,100615.00
2023-04-11T02:37:13.687Z,100615.40
2023-04-11T02:39:40.074Z,100615.80
2023-04-11T02:42:06.473Z,100621.00
2023-04-11T02:44:32.870Z,100623.60
2023-04-11T02:46:59.790Z,100617.00
2023-04-11T02:49:26.452Z,100615.40
2023-04-11T02:51:53.063Z,100609.80
2023-04-11T02:54:19.781Z,100611.40
2023-04-11T02:56:46.546Z,100612.20
2023-04-11T02:59:13.208Z,100617.80
2023-04-11T03:01:39.962Z,100611.20
2023-04-11T03:04:06.591Z,100608.00
2023-04-11T03:06:43.331Z,100603.80
2023-04-11T03:09:09.994Z,100600.60
2023-04-11T03:11:36.922Z,100601.00
2023-04-11T03:14:04.203Z,100593.60
2023-04-11T03:16:31.001Z,100589.80
2023-04-11T03:18:58.075Z,100586.40
2023-04-11T03:21:25.235Z,100587.00
2023-04-11T03:23:51.617Z,100577.00
2023-04-11T03:26:18.501Z,100580.40
2023-04-11T03:28:45.754Z,100573.80
2023-04-11T03:31:14.311Z,100574.40
2023-04-11T03:33:40.909Z,100573.00
2023-04-11T03:36:08.155Z,100572.80
2023-04-11T03:38:34.785Z,100574.00
2023-04-11T03:41:01.748Z,100573.80
2023-04-11T03:43:28.652Z,100571.60
2023-04-11T03:45:55.413Z,100572.60
2023-04-11T03:48:30.640Z,100576.60
2023-04-11T03:51:00.698Z,100572.40
2023-04-11T03:53:35.179Z,100573.00
2023-04-11T03:56:08.632Z,100576.00
2023-04-11T03:58:36.435Z,100574.80
2023-04-11T04:01:03.448Z,100569.40
2023-04-11T04:03:30.352Z,100570.80
2023-04-11T04:05:57.512Z,100572.20
2023-04-11T04:08:23.995Z,100573.80
2023-04-11T04:10:50.911Z,100568.40
2023-04-11T04:13:17.525Z,100570.00
2023-04-11T04:15:53.352Z,100570.20
2023-04-11T04:18:23.729Z,100565.00
2023-04-11T04:20:50.674Z,100562.40
2023-04-11T04:23:18.055Z,100564.20
2023-04-11T04:26:03.484Z,100561.20
2023-04-11T04:28:31.899Z,100559.60
2023-04-11T04:31:01.523Z,100558.40
2023-04-11T04:33:32.817Z,100560.00
2023-04-11T04:36:01.524Z,100557.60
2023-04-11T04:38:30.449Z,100559.20
2023-04-11T04:40:58.891Z,100564.60
2023-04-11T04:43:31.503Z,100561.20
2023-04-11T04:46:20.211Z,100562.20
2023-04-11T04:48:49.653Z,100558.00
2023-04-11T04:51:15.991Z,100555.80
2023-04-11T04:53:42.381Z,100556.60
2023-04-11T04:56:11.126Z,100552.40
2023-04-11T04:58:40.059Z,100554.40
2023-04-11T05:01:10.520Z,100553.20
2023-04-11T05:03:38.225Z,100552.00
2023-04-11T05:06:08.815Z,100551.00
2023-04-11T05:08:35.590Z,100557.20
2023-04-11T05:11:03.610Z,100557.00
2023-04-11T05:13:33.872Z,100557.40
2023-04-11T05:16:01.687Z,100561.00
2023-04-11T05:18:29.904Z,100556.00
2023-04-11T05:20:56.490Z,100558.20
2023-04-11T05:23:25.114Z,100554.80
2023-04-11T05:25:52.208Z,100544.20
2023-04-11T05:28:19.765Z,100546.60
2023-04-11T05:30:46.570Z,100533.20
2023-04-11T05:33:14.815Z,100532.20
2023-04-11T05:35:42.110Z,100525.40
2023-04-11T05:38:09.190Z,100521.80
2023-04-11T05:40:35.984Z,100514.80
2023-04-11T05:43:02.722Z,100519.00
2023-04-11T05:45:29.179Z,100516.00
2023-04-11T05:47:56.049Z,100509.00
2023-04-11T05:50:22.725Z,100503.80
2023-04-11T05:52:49.158Z,100503.20
2023-04-11T05:55:17.931Z,100503.40
2023-04-11T05:57:44.324Z,100502.40
2023-04-11T06:00:16.238Z,100492.80
2023-04-11T06:02:43.359Z,100493.40
2023-04-11T06:05:11.211Z,100484.40
2023-04-11T06:07:39.121Z,100481.40
2023-04-11T06:10:09.455Z,100480.40
2023-04-11T06:12:36.155Z,100478.00
2023-04-11T06:15:03.234Z,100475.60
2023-04-11T06:17:29.793Z,100472.60
2023-04-11T06:19:56.216Z,100466.40
2023-04-11T06:22:22.529Z,100464.40
2023-04-11T06:24:48.966Z,100462.20
2023-04-11T06:27:15.876Z,100466.80
2023-04-11T06:29:45.258Z,100463.60
2023-04-11T06:32:11.829Z,100467.00
2023-04-11T06:34:39.044Z,100469.20
2023-04-11T06:37:06.418Z,100467.60
2023-04-11T06:39:33.907Z,100461.20
2023-04-11T06:42:01.596Z,100464.60
2023-04-11T06:44:28.653Z,100463.00
2023-04-11T06:46:55.965Z,100464.80
2023-04-11T06:49:22.456Z,100467.00
2023-04-11T06:51:49.615Z,100461.40
2023-04-11T06:54:17.499Z,100459.40
2023-04-11T06:56:44.167Z,100459.80
2023-04-11T06:59:10.598Z,100453.40
2023-04-11T07:01:38.698Z,100451.20
2023-04-11T07:04:06.632Z,100442.60
2023-04-11T07:06:37.036Z,100439.00
2023-04-11T07:09:04.961Z,100438.60
2023-04-11T07:11:32.413Z,100435.20
2023-04-11T07:13:59.865Z,100429.20
2023-04-11T07:16:26.910Z,100428.40
2023-04-11T07:18:55.033Z,100420.60
2023-04-11T07:21:21.585Z,100421.40
2023-04-11T07:23:48.053Z,100417.20
2023-04-11T07:26:16.227Z,100419.40
2023-04-11T07:28:44.380Z,100419.00
2023-04-11T07:31:11.925Z,100415.00
2023-04-11T07:33:38.992Z,100412.40
2023-04-11T07:36:06.605Z,100412.80
2023-04-11T07:38:33.564Z,100408.80
2023-04-11T07:41:02.896Z,100401.00
2023-04-11T07:43:30.072Z,100399.00
2023-04-11T07:45:58.227Z,100395.80
2023-04-11T07:48:26.110Z,100395.80
2023-04-11T07:50:53.932Z,100390.40
2023-04-11T07:53:23.640Z,100387.20
2023-04-11T07:55:50.009Z,100388.00
2023-04-11T07:58:16.403Z,100376.60
2023-04-11T08:00:42.798Z,100376.80
2023-04-11T08:03:12.511Z,100375.00
2023-04-11T08:05:39.104Z,100370.80
2023-04-11T08:08:06.357Z,100368.80
2023-04-11T08:10:33.773Z,100367.40
2023-04-11T08:13:00.815Z,100362.40
2023-04-11T08:15:27.213Z,100368.00
2023-04-11T08:17:56.868Z,100363.80
2023-04-11T08:20:23.933Z,100371.20
2023-04-11T08:22:50.408Z,100362.20
2023-04-11T08:25:24.324Z,100358.00
2023-04-11T08:27:51.798Z,100361.80
2023-04-11T08:30:18.268Z,100362.60
2023-04-11T08:32:45.020Z,100368.60
2023-04-11T08:35:11.515Z,100361.00
2023-04-11T08:37:37.914Z,100350.00
2023-04-11T08:40:06.261Z,100344.00
2023-04-11T08:42:33.557Z,100336.80
2023-04-11T08:45:03.933Z,100331.80
2023-04-11T08:47:30.937Z,100335.20
2023-04-11T08:49:57.506Z,100323.00
2023-04-11T08:52:24.348Z,100317.80
2023-04-11T08:54:54.482Z,100314.20
2023-04-11T08:57:26.797Z,100313.60
2023-04-11T08:59:55.713Z,100306.60
2023-04-11T09:02:22.212Z,100300.40
2023-04-11T09:04:48.885Z,100298.60
2023-04-11T09:07:18.848Z,100292.60
2023-04-11T09:09:45.767Z,100290.80
2023-04-11T09:12:12.927Z,100291.00
2023-04-11T09:14:39.561Z,100285.20
2023-04-11T09:17:12.849Z,100290.00
2023-04-11T09:19:44.632Z,100284.60
2023-04-11T09:22:12.026Z,100282.40
2023-04-11T09:24:38.540Z,100271.40
2023-04-11T09:27:12.815Z,100270.60
2023-04-11T09:29:46.099Z,100262.60
2023-04-11T09:32:33.558Z,100245.40
2023-04-11T09:35:24.862Z,100242.00
2023-04-11T09:37:58.590Z,100241.60
2023-04-11T09:40:31.127Z,100231.60
2023-04-11T09:43:03.400Z,100224.40
2023-04-11T09:45:33.826Z,100223.40
2023-04-11T09:48:03.249Z,100210.80
2023-04-11T09:50:31.260Z,100202.60
2023-04-11T09:52:59.289Z,100204.00
2023-04-11T09:55:26.473Z,100195.00
2023-04-11T09:57:54.046Z,100195.60
2023-04-11T10:00:29.557Z,100189.20
2023-04-11T10:02:56.338Z,100187.40
2023-04-11T10:05:28.477Z,100183.60
2023-04-11T10:08:07.267Z,100188.00
2023-04-11T10:10:35.408Z,100181.60
2023-04-11T10:13:03.207Z,100172.80
2023-04-11T10:15:30.184Z,100172.00
2023-04-11T10:18:13.075Z,100167.40
2023-04-11T10:20:46.276Z,100158.80
2023-04-11T10:23:13.713Z,100163.20
2023-04-11T10:25:51.565Z,100166.20
2023-04-11T10:28:37.414Z,100166.80
2023-04-11T10:31:13.549Z,100163.80
2023-04-11T10:34:15.757Z,100171.80
2023-04-11T10:37:11.940Z,100166.00
2023-04-11T10:39:50.419Z,100153.40
2023-04-11T10:42:35.068Z,100146.80
2023-04-11T10:45:26.613Z,100138.60
2023-04-11T10:47:56.208Z,100142.20
2023-04-11T10:50:25.734Z,100145.20
2023-04-11T10:53:00.345Z,100136.40
2023-04-11T10:55:29.674Z,100145.20
2023-04-11T10:58:06.568Z,100143.00
2023-04-11T11:00:51.445Z,100139.20
2023-04-11T11:03:19.776Z,100141.40
2023-04-11T11:05:47.017Z,100133.60
2023-04-11T11:08:13.506Z,100133.20
2023-04-11T11:10:47.706Z,100128.40
2023-04-11T11:13:15.726Z,100130.60
2023-04-11T11:15:49.964Z,100127.60
2023-04-11T11:18:17.432Z,100126.20
2023-04-11T11:20:43.848Z,100128.00
2023-04-11T11:23:10.898Z,100128.20
2023-04-11T11:25:37.444Z,100121.00
2023-04-11T11:28:08.520Z,100116.80
2023-04-11T11:30:36.615Z,100113.40
2023-04-11T11:33:18.402Z,100099.80
2023-04-11T11:35:55.054Z,100103.20
2023-04-11T11:38:26.016Z,100099.20
2023-04-11T11:40:53.192Z,100090.20
2023-04-11T11:43:19.776Z,100089.60
2023-04-11T11:45:46.830Z,100092.20
2023-04-11T11:48:23.994Z,100085.00
2023-04-11T11:50:57.397Z,100088.20
2023-04-11T11:53:25.603Z,100088.60
2023-04-11T11:55:52.757Z,100083.60
2023-04-11T11:58:20.013Z,100091.40
2023-04-11T12:00:50.998Z,100091.60
2023-04-11T12:03:22.179Z,100086.20
2023-04-11T12:05:50.787Z,100087.60
2023-04-11T12:08:21.402Z,100074.20
2023-04-11T12:10:49.931Z,100076.40
2023-04-11T12:13:21.741Z,100074.20
2023-04-11T12:15:57.694Z,100074.00
2023-04-11T12:18:26.925Z,100075.00
2023-04-11T12:20:54.336Z,100069.60
2023-04-11T12:23:21.894Z,100069.20
2023-04-11T12:25:48.300Z,100074.40
2023-04-11T12:28:15.773Z,100062.20
2023-04-11T12:30:42.219Z,100056.60
2023-04-11T12:33:08.890Z,100061.20
2023-04-11T12:35:35.502Z,100062.60
2023-04-11T12:38:01.892Z,100049.60
2023-04-11T12:40:29.126Z,100043.00
2023-04-11T12:42:57.340Z,100043.40
2023-04-11T12:45:25.598Z,100048.60
2023-04-11T12:47:52.868Z,100046.20
2023-04-11T12:50:22.201Z,100044.20
2023-04-11T12:52:48.743Z,100039.40
2023-04-11T12:55:15.372Z,100036.40
2023-04-11T12:57:41.925Z,100032.60
2023-04-11T13:00:12.121Z,100030.80
2023-04-11T13:02:44.046Z,100025.80
2023-04-11T13:05:14.904Z,100022.40
2023-04-11T13:07:43.862Z,100018.60
2023-04-11T13:10:10.681Z,100022.20
2023-04-11T13:12:40.908Z,100019.20
2023-04-11T13:15:09.245Z,100010.80
2023-04-11T13:17:35.662Z,100007.40
2023-04-11T13:20:06.450Z,99998.80
2023-04-11T13:22:33.404Z,99992.40
2023-04-11T13:24:59.988Z,99991.60
2023-04-11T13:27:26.888Z,99980.20
2023-04-11T13:29:53.282Z,99978.80
2023-04-11T13:32:20.288Z,99978.00
2023-04-11T13:34:46.830Z,99979.80
2023-04-11T13:37:13.277Z,99974.40
2023-04-11T13:39:39.673Z,99973.80
2023-04-11T13:42:06.410Z,99968.60
2023-04-11T13:44:32.982Z,99958.00
2023-04-11T13:47:00.705Z,99951.60
2023-04-11T13:49:27.054Z,99959.20
2023-04-11T13:51:53.579Z,99951.20
2023-04-11T13:54:20.087Z,99953.40
2023-04-11T13:56:46.500Z,99959.80
2023-04-11T13:59:12.949Z,99953.80
2023-04-11T14:01:39.825Z,99949.40
2023-04-11T14:04:06.329Z,99951.60
2023-04-11T14:06:34.526Z,99949.40
2023-04-11T14:09:00.943Z,99942.80
2023-04-11T14:11:27.357Z,99951.60
2023-04-11T14:13:53.836Z,99937.20
2023-04-11T14:16:20.376Z,99940.40
2023-04-11T14:18:46.809Z,99934.80
2023-04-11T14:21:13.373Z,99939.40
2023-04-11T14:23:40.478Z,99933.00
2023-04-11T14:26:06.878Z,99939.00
2023-04-11T14:28:34.087Z,99929.80
2023-04-11T14:31:00.580Z,99929.00
2023-04-11T14:33:27.126Z,99924.40
2023-04-11T14:35:53.634Z,99923.60
2023-04-11T14:38:19.990Z,99921.40
2023-04-11T14:40:46.823Z,99918.80
2023-04-11T14:43:13.459Z,99915.00
2023-04-11T14:45:39.990Z,99917.60
2023-04-11T14:48:06.412Z,99915.60
2023-04-11T14:50:32.982Z,99916.40
2023-04-11T14:52:59.421Z,99914.20
2023-04-11T14:55:26.073Z,99908.40
2023-04-11T14:57:55.219Z,99902.20
2023-04-11T15:00:23.827Z,99903.40
2023-04-11T15:02:53.620Z,99899.20
2023-04-11T15:05:22.537Z,99908.00
2023-04-11T15:07:52.381Z,99906.20
2023-04-11T15:10:22.407Z,99900.40
2023-04-11T15:12:49.016Z,99900.20
2023-04-11T15:15:15.530Z,99894.20
2023-04-11T15:17:46.530Z,99894.00
2023-04-11T15:20:14.401Z,99889.40
2023-04-11T15:22:43.840Z,99890.60
2023-04-11T15:25:13.663Z,99883.60
2023-04-11T15:27:41.110Z,99886.20
2023-04-11T15:30:09.453Z,99876.80
2023-04-11T15:32:35.737Z,99877.60
2023-04-11T15:35:02.243Z,99872.80
2023-04-11T15:37:28.768Z,99878.80
2023-04-11T15:39:56.955Z,99873.60
2023-04-11T15:42:23.726Z,99877.00
2023-04-11T15:44:50.141Z,99866.40
2023-04-11T15:47:16.591Z,99865.00
2023-04-11T15:49:43.117Z,99864.40
2023-04-11T15:52:09.526Z,99863.00
2023-04-11T15:54:35.955Z,99859.60
2023-04-11T15:57:03.012Z,99860.40
2023-04-11T15:59:29.936Z,99858.00
2023-04-11T16:01:56.974Z,99862.00
2023-04-11T16:04:23.621Z,99857.40
2023-04-11T16:06:50.680Z,99857.60
2023-04-11T16:09:17.119Z,99850.40
2023-04-11T16:11:43.545Z,99853.00
2023-04-11T16:14:10.485Z,99850.60
2023-04-11T16:16:37.199Z,99849.80
2023-04-11T16:19:03.667Z,99846.60
2023-04-11T16:21:30.775Z,99848.40
2023-04-11T16:23:57.501Z,99845.40
2023-04-11T16:26:24.254Z,99849.60
2023-04-11T16:28:50.598Z,99842.80
2023-04-11T16:31:21.270Z,99840.00
2023-04-11T16:33:47.759Z,99837.20
2023-04-11T16:36:14.369Z,99836.60
2023-04-11T16:38:40.791Z,99832.60
2023-04-11T16:41:07.238Z,99829.60
2023-04-11T16:43:33.645Z,99829.60
2023-04-11T16:46:00.344Z,99829.60
2023-04-11T16:48:27.415Z,99828.60
2023-04-11T16:50:53.812Z,99827.40
2023-04-11T16:53:20.563Z,99825.40
2023-04-11T16:55:46.980Z,99827.20
2023-04-11T16:58:13.432Z,99826.40
2023-04-11T17:00:39.842Z,99825.20
2023-04-11T17:03:06.476Z,99824.40
2023-04-11T17:05:33.747Z,99822.60
2023-04-11T17:08:00.795Z,99816.20
2023-04-11T17:10:27.410Z,99815.20
2023-04-11T17:12:53.936Z,99814.40
2023-04-11T17:15:20.408Z,99814.20
2023-04-11T17:17:46.875Z,99813.80
2023-04-11T17:20:13.945Z,99812.00
2023-04-11T17:22:42.462Z,99811.20
2023-04-11T17:25:09.449Z,99811.00
2023-04-11T17:27:35.828Z,99813.00
2023-04-11T17:30:03.338Z,99809.80
2023-04-11T17:32:29.735Z,99808.60
2023-04-11T17:34:56.315Z,99811.00
2023-04-11T17:37:22.701Z,99813.40
2023-04-11T17:39:49.160Z,99816.80
2023-04-11T17:42:15.555Z,99820.20
2023-04-11T17:44:41.968Z,99817.80
2023-04-11T17:47:08.428Z,99818.40
2023-04-11T17:49:35.043Z,99814.40
2023-04-11T17:52:01.571Z,99817.40
2023-04-11T17:54:28.900Z,99817.20
2023-04-11T17:56:55.685Z,99813.40
2023-04-11T17:59:23.473Z,99820.00
2023-04-11T18:01:52.636Z,99819.20
2023-04-11T18:04:19.297Z,99818.80
2023-04-11T18:06:45.946Z,99817.20
2023-04-11T18:09:13.243Z,99821.40
2023-04-11T18:11:41.308Z,99819.20
2023-04-11T18:14:07.642Z,99827.00
2023-04-11T18:16:35.048Z,99833.80
2023-04-11T18:19:01.499Z,99829.00
2023-04-11T18:21:27.965Z,99839.40
2023-04-11T18:23:54.582Z,99839.00
2023-04-11T18:26:22.339Z,99841.20
2023-04-11T18:28:48.695Z,99843.40
2023-04-11T18:31:15.743Z,99838.00
2023-04-11T18:33:45.348Z,99840.40
2023-04-11T18:36:12.998Z,99842.60
2023-04-11T18:38:40.923Z,99837.80
2023-04-11T18:41:08.032Z,99841.00
2023-04-11T18:43:34.983Z,99840.20
2023-04-11T18:46:01.610Z,99839.00
2023-04-11T18:48:28.118Z,99838.20
2023-04-11T18:50:59.753Z,99836.20
2023-04-11T18:53:28.368Z,99833.40
2023-04-11T18:55:54.944Z,99836.20
2023-04-11T18:58:24.003Z,99838.20
2023-04-11T19:00:51.850Z,99836.60
2023-04-11T19:03:18.382Z,99832.60
2023-04-11T19:05:46.667Z,99836.00
2023-04-11T19:08:13.367Z,99839.20
2023-04-11T19:10:39.874Z,99836.80
2023-04-11T19:13:06.493Z,99834.00
2023-04-11T19:15:32.959Z,99833.80
2023-04-11T19:17:59.396Z,99834.20
2023-04-11T19:20:26.036Z,99832.80
2023-04-11T19:22:52.506Z,99831.60
2023-04-11T19:25:19.085Z,99833.40
2023-04-11T19:27:46.445Z,99832.00
2023-04-11T19:30:13.063Z,99829.60
2023-04-11T19:32:42.420Z,99829.00
2023-04-11T19:35:10.970Z,99833.20
2023-04-11T19:37:37.815Z,99836.20
2023-04-11T19:40:06.656Z,99839.00
2023-04-11T19:42:36.161Z,99832.60
2023-04-11T19:45:06.733Z,99837.20
2023-04-11T19:47:33.181Z,99833.20
2023-04-11T19:50:00.259Z,99836.00
2023-04-11T19:52:27.476Z,99832.20
2023-04-11T19:54:55.739Z,99833.80
2023-04-11T19:57:26.296Z,99832.40
2023-04-11T19:59:53.007Z,99834.00
2023-04-11T20:02:19.550Z,99838.00
2023-04-11T20:04:46.204Z,99836.40
2023-04-11T20:07:12.715Z,99839.40
2023-04-11T20:09:41.085Z,99836.80
2023-04-11T20:12:07.634Z,99840.40
2023-04-11T20:14:34.226Z,99843.00
2023-04-11T20:17:01.310Z,99842.80
2023-04-11T20:19:28.919Z,99841.40
2023-04-11T20:21:55.375Z,99840.40
2023-04-11T20:24:21.791Z,99840.20
2023-04-11T20:26:48.244Z,99836.20
2023-04-11T20:29:17.315Z,99833.00
2023-04-11T20:31:44.081Z,99833.40
2023-04-11T20:34:11.055Z,99831.00
2023-04-11T20:36:37.614Z,99831.60
2023-04-11T20:39:04.573Z,99830.60
2023-04-11T20:41:31.524Z,99829.80
2023-04-11T20:43:58.772Z,99826.60
2023-04-11T20:46:25.476Z,99826.80
2023-04-11T20:48:51.934Z,99823.60
2023-04-11T20:51:18.529Z,99830.40
2023-04-11T20:53:45.400Z,99831.00
2023-04-11T20:56:14.269Z,99824.80
2023-04-11T20:58:40.752Z,99827.40
2023-04-11T21:01:07.243Z,99827.00
2023-04-11T21:03:36.730Z,99829.40
2023-04-11T21:06:06.636Z,99822.20
2023-04-11T21:08:36.631Z,99820.20
2023-04-11T21:11:04.903Z,99823.20
2023-04-11T21:13:31.412Z,99821.80
2023-04-11T21:15:58.018Z,99827.60
2023-04-11T21:18:24.555Z,99826.80
2023-04-11T21:20:50.942Z,99829.00
2023-04-11T21:23:17.601Z,99830.40
2023-04-11T21:25:44.037Z,99834.20
2023-04-11T21:28:10.593Z,99832.00
2023-04-11T21:30:38.665Z,99834.80
2023-04-11T21:33:05.208Z,99838.60
2023-04-11T21:35:31.732Z,99843.20
2023-04-11T21:37:58.180Z,99838.00
2023-04-11T21:40:24.635Z,99835.80
2023-04-11T21:42:51.115Z,99829.60
2023-04-11T21:45:17.711Z,99831.20
2023-04-11T21:47:44.447Z,99832.40
2023-04-11T21:50:11.214Z,99832.60
2023-04-11T21:52:37.629Z,99836.00
2023-04-11T21:55:06.387Z,99831.00
2023-04-11T21:57:35.039Z,99832.80
2023-04-11T22:00:01.525Z,99830.40
2023-04-11T22:02:39.544Z,99831.40
2023-04-11T22:05:08.711Z,99837.80
2023-04-11T22:07:47.742Z,99833.60
2023-04-11T22:10:15.405Z,99841.20
2023-04-11T22:12:44.793Z,99830.60
2023-04-11T22:15:11.865Z,99824.20
2023-04-11T22:17:41.049Z,99825.60
2023-04-11T22:20:08.621Z,99828.20
2023-04-11T22:22:35.021Z,99826.40
2023-04-11T22:25:01.377Z,99823.00
2023-04-11T22:27:28.732Z,99823.00
2023-04-11T22:30:01.688Z,99818.20
2023-04-11T22:32:29.434Z,99822.60
2023-04-11T22:34:55.844Z,99822.80
2023-04-11T22:37:22.389Z,99817.80
2023-04-11T22:39:49.252Z,99822.20
2023-04-11T22:42:16.185Z,99823.20
2023-04-11T22:44:42.582Z,99816.60
2023-04-11T22:47:12.691Z,99814.40
2023-04-11T22:49:42.095Z,99815.80
2023-04-11T22:52:13.420Z,99815.20
2023-04-11T22:54:41.318Z,99816.60
2023-04-11T22:57:07.707Z,99814.80
2023-04-11T22:59:34.140Z,99810.00
2023-04-11T23:02:01.050Z,99807.00
2023-04-11T23:04:27.696Z,99804.20
2023-04-11T23:06:54.097Z,99803.00
2023-04-11T23:09:21.125Z,99808.20
2023-04-11T23:11:48.346Z,99802.40
2023-04-11T23:14:17.496Z,99802.00
2023-04-11T23:16:44.474Z,99797.00
2023-04-11T23:19:10.963Z,99789.40
2023-04-11T23:21:37.471Z,99790.40
2023-04-11T23:24:06.285Z,99793.00
2023-04-11T23:26:32.994Z,99800.20
2023-04-11T23:29:01.574Z,99806.00
2023-04-11T23:31:27.996Z,99808.40
2023-04-11T23:33:54.918Z,99808.40
2023-04-11T23:36:21.996Z,99813.40
2023-04-11T23:38:48.329Z,99807.60
2023-04-11T23:41:14.709Z,99802.40
2023-04-11T23:43:41.082Z,99808.60
2023-04-11T23:46:07.570Z,99812.20
2023-04-11T23:48:34.021Z,99813.40
2023-04-11T23:51:00.663Z,99814.20
2023-04-11T23:53:27.018Z,99813.20
2023-04-11T23:55:53.434Z,99806.40
2023-04-11T23:58:20.128Z,99803.40
